createdAt,value
2023-04-05T00:00:54.984Z,1.40
2023-04-05T00:01:55.017Z,1.31
2023-04-05T00:02:55.101Z,1.54
2023-04-05T00:03:55.150Z,1.85
2023-04-05T00:04:55.265Z,1.52
2023-04-05T00:05:55.232Z,1.69
2023-04-05T00:06:55.288Z,1.82
2023-04-05T00:07:55.283Z,1.57
2023-04-05T00:08:55.298Z,1.37
2023-04-05T00:09:55.368Z,1.62
2023-04-05T00:10:55.452Z,1.50
2023-04-05T00:11:55.535Z,1.43
2023-04-05T00:12:55.555Z,1.67
2023-04-05T00:13:55.556Z,1.51
2023-04-05T00:14:55.624Z,1.55
2023-04-05T00:15:55.653Z,1.55
2023-04-05T00:16:55.755Z,1.35
2023-04-05T00:17:55.806Z,1.68
2023-04-05T00:18:55.754Z,1.52
2023-04-05T00:19:55.831Z,1.53
2023-04-05T00:20:55.854Z,1.43
2023-04-05T00:21:55.903Z,1.51
2023-04-05T00:22:55.927Z,1.58
2023-04-05T00:23:55.986Z,1.56
2023-04-05T00:24:56.018Z,1.38
2023-04-05T00:25:56.077Z,1.40
2023-04-05T00:26:56.128Z,1.75
2023-04-05T00:27:56.150Z,1.50
2023-04-05T00:28:56.180Z,1.55
2023-04-05T00:29:56.242Z,1.73
2023-04-05T00:30:56.254Z,1.56
2023-04-05T00:31:56.451Z,1.52
2023-04-05T00:32:56.418Z,1.65
2023-04-05T00:33:56.416Z,1.57
2023-04-05T00:34:56.436Z,1.82
2023-04-05T00:35:56.501Z,1.45
2023-04-05T00:36:56.532Z,1.65
2023-04-05T00:37:56.555Z,1.68
2023-04-05T00:38:56.601Z,1.92
2023-04-05T00:39:56.633Z,1.39
2023-04-05T00:40:56.696Z,2.12
2023-04-05T00:41:56.743Z,1.60
2023-04-05T00:42:56.767Z,1.49
2023-04-05T00:43:56.808Z,1.80
2023-04-05T00:44:56.842Z,1.42
2023-04-05T00:45:56.952Z,1.62
2023-04-05T00:46:56.948Z,1.53
2023-04-05T00:47:57.040Z,1.75
2023-04-05T00:48:57.076Z,1.39
2023-04-05T00:49:57.089Z,1.51
2023-04-05T00:50:57.206Z,1.25
2023-04-05T00:51:57.274Z,1.42
2023-04-05T00:52:57.228Z,1.28
2023-04-05T00:53:57.286Z,1.66
2023-04-05T00:54:57.316Z,1.52
2023-04-05T00:55:57.368Z,1.69
2023-04-05T00:56:57.413Z,1.59
2023-04-05T00:57:57.453Z,1.48
2023-04-05T00:58:57.545Z,1.44
2023-04-05T00:59:57.573Z,1.46
2023-04-05T01:00:57.651Z,1.72
2023-04-05T01:01:57.640Z,1.62
2023-04-05T01:02:57.789Z,1.51
2023-04-05T01:03:57.798Z,1.35
2023-04-05T01:04:57.782Z,1.50
2023-04-05T01:05:57.862Z,1.56
2023-04-05T01:06:57.869Z,1.92
2023-04-05T01:07:57.918Z,1.68
2023-04-05T01:08:57.943Z,1.20
2023-04-05T01:09:58.007Z,1.62
2023-04-05T01:10:58.041Z,1.53
2023-04-05T01:11:58.123Z,1.33
2023-04-05T01:12:58.159Z,1.53
2023-04-05T01:13:58.202Z,1.67
2023-04-05T01:14:58.240Z,1.49
2023-04-05T01:15:58.291Z,1.86
2023-04-05T01:16:58.436Z,1.43
2023-04-05T01:17:58.456Z,1.44
2023-04-05T01:18:58.505Z,1.65
2023-04-05T01:19:58.473Z,1.47
2023-04-05T01:20:58.529Z,1.44
2023-04-05T01:21:58.588Z,1.50
2023-04-05T01:22:58.639Z,1.60
2023-04-05T01:23:58.691Z,1.23
2023-04-05T01:24:58.745Z,1.35
2023-04-05T01:25:58.777Z,1.52
2023-04-05T01:26:58.841Z,1.35
2023-04-05T01:27:58.870Z,1.41
2023-04-05T01:28:58.921Z,1.76
2023-04-05T01:29:58.992Z,1.41
2023-04-05T01:30:59.095Z,1.65
2023-04-05T01:31:59.053Z,1.50
2023-04-05T01:32:59.156Z,1.47
2023-04-05T01:33:59.164Z,1.52
2023-04-05T01:34:59.209Z,1.59
2023-04-05T01:35:59.269Z,1.71
2023-04-05T01:36:59.318Z,1.69
2023-04-05T01:37:59.347Z,1.94
2023-04-05T01:38:59.402Z,1.61
2023-04-05T01:39:59.447Z,1.40
2023-04-05T01:40:59.491Z,1.48
2023-04-05T01:41:59.561Z,1.34
2023-04-05T01:42:59.597Z,1.64
2023-04-05T01:43:59.650Z,1.56
2023-04-05T01:44:59.696Z,1.57
2023-04-05T01:45:59.743Z,1.37
2023-04-05T01:46:59.784Z,1.50
2023-04-05T01:47:59.855Z,1.30
2023-04-05T01:48:59.884Z,1.51
2023-04-05T01:49:59.937Z,1.43
2023-04-05T01:50:59.989Z,1.63
2023-04-05T01:52:00.013Z,1.47
2023-04-05T01:53:00.078Z,1.42
2023-04-05T01:54:00.306Z,1.27
2023-04-05T01:55:00.206Z,1.14
2023-04-05T01:56:00.213Z,1.45
2023-04-05T01:57:00.262Z,1.10
2023-04-05T01:58:00.334Z,1.52
2023-04-05T01:59:00.385Z,1.50
2023-04-05T02:00:00.431Z,1.36
2023-04-05T02:01:00.581Z,1.44
2023-04-05T02:02:00.524Z,1.46
2023-04-05T02:03:00.668Z,1.86
2023-04-05T02:04:00.630Z,1.71
2023-04-05T02:05:00.659Z,1.31
2023-04-05T02:06:00.710Z,1.51
2023-04-05T02:07:00.779Z,1.47
2023-04-05T02:08:00.829Z,1.56
2023-04-05T02:09:00.902Z,1.50
2023-04-05T02:10:00.898Z,1.45
2023-04-05T02:11:00.950Z,1.52
2023-04-05T02:12:00.982Z,1.40
2023-04-05T02:13:01.073Z,1.32
2023-04-05T02:14:01.112Z,1.38
2023-04-05T02:15:01.159Z,1.53
2023-04-05T02:16:01.190Z,1.52
2023-04-05T02:17:01.238Z,1.25
2023-04-05T02:18:01.302Z,1.54
2023-04-05T02:19:01.339Z,1.42
2023-04-05T02:20:01.395Z,1.58
2023-04-05T02:21:01.428Z,1.41
2023-04-05T02:22:01.479Z,1.61
2023-04-05T02:23:01.524Z,1.65
2023-04-05T02:24:01.565Z,1.81
2023-04-05T02:25:01.618Z,1.38
2023-04-05T02:26:01.672Z,1.62
2023-04-05T02:27:01.703Z,1.39
2023-04-05T02:28:01.768Z,1.73
2023-04-05T02:29:01.802Z,1.71
2023-04-05T02:30:01.857Z,1.39
2023-04-05T02:31:01.919Z,1.38
2023-04-05T02:32:01.974Z,1.29
2023-04-05T02:33:02.030Z,1.56
2023-04-05T02:34:02.051Z,1.29
2023-04-05T02:35:02.114Z,1.55
2023-04-05T02:36:02.190Z,1.22
2023-04-05T02:37:02.196Z,1.70
2023-04-05T02:38:02.284Z,1.48
2023-04-05T02:39:02.298Z,1.48
2023-04-05T02:40:02.356Z,1.53
2023-04-05T02:41:02.390Z,1.45
2023-04-05T02:42:02.456Z,1.82
2023-04-05T02:43:02.507Z,1.79
2023-04-05T02:44:02.562Z,1.91
2023-04-05T02:45:02.594Z,1.43
2023-04-05T02:46:02.829Z,1.61
2023-04-05T02:47:02.702Z,1.78
2023-04-05T02:48:02.807Z,1.46
2023-04-05T02:49:02.791Z,1.39
2023-04-05T02:50:02.828Z,1.53
2023-04-05T02:51:02.889Z,1.65
2023-04-05T02:52:02.939Z,0.87
2023-04-05T02:53:02.975Z,1.69
2023-04-05T02:54:03.038Z,1.67
2023-04-05T02:55:03.080Z,1.74
2023-04-05T02:56:03.124Z,1.33
2023-04-05T02:57:03.171Z,1.37
2023-04-05T02:58:03.230Z,1.58
2023-04-05T02:59:03.292Z,1.44
2023-04-05T03:00:03.342Z,1.62
2023-04-05T03:01:03.428Z,1.51
2023-04-05T03:02:03.437Z,1.39
2023-04-05T03:03:03.657Z,1.49
2023-04-05T03:04:03.668Z,1.55
2023-04-05T03:05:03.587Z,1.58
2023-04-05T03:06:03.617Z,1.30
2023-04-05T03:07:03.679Z,1.53
2023-04-05T03:08:03.741Z,1.84
2023-04-05T03:09:03.784Z,1.99
2023-04-05T03:10:03.862Z,1.55
2023-04-05T03:11:03.891Z,1.40
2023-04-05T03:12:03.957Z,1.44
2023-04-05T03:13:03.969Z,1.42
2023-04-05T03:14:04.034Z,1.61
2023-04-05T03:15:04.082Z,1.79
2023-04-05T03:16:04.127Z,1.40
2023-04-05T03:17:04.194Z,1.78
2023-04-05T03:18:04.246Z,1.37
2023-04-05T03:19:04.290Z,1.56
2023-04-05T03:20:04.325Z,1.53
2023-04-05T03:21:04.654Z,1.63
2023-04-05T03:22:04.435Z,1.36
2023-04-05T03:23:04.462Z,1.49
2023-04-05T03:24:04.538Z,1.47
2023-04-05T03:25:04.588Z,1.44
2023-04-05T03:26:04.624Z,1.60
2023-04-05T03:27:04.690Z,1.61
2023-04-05T03:28:04.719Z,1.07
2023-04-05T03:29:04.792Z,1.57
2023-04-05T03:30:04.853Z,1.46
2023-04-05T03:31:04.918Z,1.63
2023-04-05T03:32:04.941Z,1.74
2023-04-05T03:33:05.016Z,1.57
2023-04-05T03:34:05.039Z,1.57
2023-04-05T03:35:05.095Z,1.43
2023-04-05T03:36:05.133Z,1.36
2023-04-05T03:37:05.190Z,1.43
2023-04-05T03:38:05.252Z,1.62
2023-04-05T03:39:05.301Z,1.58
2023-04-05T03:40:05.346Z,1.65
2023-04-05T03:41:05.380Z,1.86
2023-04-05T03:42:05.441Z,1.54
2023-04-05T03:43:05.504Z,1.67
2023-04-05T03:44:05.543Z,1.76
2023-04-05T03:45:05.627Z,1.76
2023-04-05T03:46:05.697Z,1.40
2023-04-05T03:47:05.694Z,1.33
2023-04-05T03:48:05.835Z,2.00
2023-04-05T03:49:05.800Z,1.85
2023-04-05T03:50:05.871Z,1.67
2023-04-05T03:51:05.911Z,1.45
2023-04-05T03:52:05.971Z,1.64
2023-04-05T03:53:06.036Z,1.58
2023-04-05T03:54:06.060Z,1.32
2023-04-05T03:55:06.119Z,1.97
2023-04-05T03:56:06.170Z,1.86
2023-04-05T03:57:06.242Z,1.44
2023-04-05T03:58:06.287Z,1.84
2023-04-05T03:59:06.404Z,1.74
2023-04-05T04:00:06.400Z,1.71
2023-04-05T04:01:06.459Z,2.13
2023-04-05T04:02:06.539Z,2.00
2023-04-05T04:03:06.579Z,2.14
2023-04-05T04:04:06.608Z,2.22
2023-04-05T04:05:06.711Z,2.30
2023-04-05T04:06:06.782Z,2.00
2023-04-05T04:07:06.763Z,3.46
2023-04-05T04:08:06.823Z,2.65
2023-04-05T04:09:06.869Z,2.86
2023-04-05T04:10:06.934Z,2.73
2023-04-05T04:11:06.988Z,2.69
2023-04-05T04:12:07.023Z,2.46
2023-04-05T04:13:07.078Z,2.78
2023-04-05T04:14:07.131Z,2.43
2023-04-05T04:15:07.225Z,2.29
2023-04-05T04:16:07.285Z,2.40
2023-04-05T04:17:07.304Z,2.13
2023-04-05T04:18:07.379Z,1.91
2023-04-05T04:19:07.403Z,2.28
2023-04-05T04:20:07.464Z,2.19
2023-04-05T04:21:07.506Z,2.29
2023-04-05T04:22:07.554Z,2.41
2023-04-05T04:23:07.623Z,2.22
2023-04-05T04:24:07.669Z,2.12
2023-04-05T04:25:07.725Z,2.05
2023-04-05T04:26:07.778Z,2.60
2023-04-05T04:27:07.813Z,2.19
2023-04-05T04:28:07.948Z,2.03
2023-04-05T04:29:07.939Z,2.34
2023-04-05T04:30:08.005Z,2.13
2023-04-05T04:31:08.053Z,1.99
2023-04-05T04:32:08.162Z,2.00
2023-04-05T04:33:09.187Z,2.12
2023-04-05T04:34:08.189Z,2.21
2023-04-05T04:35:08.269Z,1.92
2023-04-05T04:36:08.345Z,2.01
2023-04-05T04:37:08.352Z,1.87
2023-04-05T04:38:08.497Z,1.96
2023-04-05T04:39:08.473Z,1.98
2023-04-05T04:40:08.531Z,1.63
2023-04-05T04:41:08.585Z,1.76
2023-04-05T04:42:08.640Z,1.95
2023-04-05T04:43:08.695Z,2.25
2023-04-05T04:44:08.737Z,2.04
2023-04-05T04:45:08.796Z,1.94
2023-04-05T04:46:08.890Z,2.06
2023-04-05T04:47:08.912Z,1.70
2023-04-05T04:48:08.979Z,1.90
2023-04-05T04:49:09.043Z,1.79
2023-04-05T04:50:09.069Z,1.83
2023-04-05T04:51:09.191Z,1.91
2023-04-05T04:52:09.205Z,1.81
2023-04-05T04:53:09.233Z,1.83
2023-04-05T04:54:09.304Z,1.83
2023-04-05T04:55:09.339Z,1.94
2023-04-05T04:56:09.419Z,1.79
2023-04-05T04:57:09.456Z,1.89
2023-04-05T04:58:09.509Z,1.75
2023-04-05T04:59:09.608Z,1.18
2023-04-05T05:00:09.607Z,1.77
2023-04-05T05:01:09.933Z,1.92
2023-04-05T05:02:09.716Z,1.75
2023-04-05T05:03:09.885Z,1.79
2023-04-05T05:04:09.874Z,1.89
2023-04-05T05:05:09.896Z,1.81
2023-04-05T05:06:09.965Z,1.56
2023-04-05T05:07:10.007Z,2.18
2023-04-05T05:08:10.061Z,1.80
2023-04-05T05:09:10.100Z,2.00
2023-04-05T05:10:10.168Z,1.77
2023-04-05T05:11:10.217Z,1.80
2023-04-05T05:12:10.267Z,1.75
2023-04-05T05:13:10.299Z,1.75
2023-04-05T05:14:10.372Z,1.67
2023-04-05T05:15:10.420Z,1.99
2023-04-05T05:16:10.462Z,1.89
2023-04-05T05:17:10.514Z,1.73
2023-04-05T05:18:10.614Z,1.73
2023-04-05T05:19:10.613Z,1.93
2023-04-05T05:20:10.720Z,1.96
2023-04-05T05:21:10.717Z,1.92
2023-04-05T05:22:10.764Z,2.10
2023-04-05T05:23:10.830Z,1.48
2023-04-05T05:24:10.882Z,1.84
2023-04-05T05:25:10.938Z,1.92
2023-04-05T05:26:10.974Z,1.69
2023-04-05T05:27:11.034Z,1.85
2023-04-05T05:28:11.065Z,2.38
2023-04-05T05:29:11.107Z,1.96
2023-04-05T05:30:11.170Z,2.28
2023-04-05T05:31:11.225Z,1.82
2023-04-05T05:32:11.301Z,2.08
2023-04-05T05:33:11.353Z,1.61
2023-04-05T05:34:11.363Z,2.07
2023-04-05T05:35:11.418Z,2.26
2023-04-05T05:36:11.411Z,2.19
2023-04-05T05:37:11.458Z,2.38
2023-04-05T05:38:13.801Z,2.34
2023-04-05T05:39:11.607Z,2.43
2023-04-05T05:40:11.604Z,2.18
2023-04-05T05:41:11.681Z,2.10
2023-04-05T05:42:11.680Z,1.76
2023-04-05T05:43:11.710Z,2.11
2023-04-05T05:44:11.719Z,2.57
2023-04-05T05:45:11.740Z,2.53
2023-04-05T05:46:11.843Z,2.13
2023-04-05T05:47:11.807Z,2.89
2023-04-05T05:48:11.817Z,2.52
2023-04-05T05:49:11.837Z,2.60
2023-04-05T05:50:11.839Z,2.70
2023-04-05T05:51:11.828Z,2.70
2023-04-05T05:52:11.850Z,2.65
2023-04-05T05:53:11.940Z,2.92
2023-04-05T05:54:12.012Z,2.15
2023-04-05T05:55:12.052Z,2.31
2023-04-05T05:56:12.021Z,1.60
2023-04-05T05:57:12.047Z,2.32
2023-04-05T05:58:12.071Z,2.51
2023-04-05T05:59:12.250Z,2.49
2023-04-05T06:00:12.135Z,2.56
2023-04-05T06:01:12.231Z,2.62
2023-04-05T06:02:12.240Z,2.41
2023-04-05T06:03:12.481Z,2.42
2023-04-05T06:04:12.501Z,2.35
2023-04-05T06:05:12.420Z,2.26
2023-04-05T06:06:12.496Z,2.18
2023-04-05T06:07:12.537Z,2.39
2023-04-05T06:08:12.572Z,2.34
2023-04-05T06:09:12.647Z,2.13
2023-04-05T06:10:12.674Z,3.04
2023-04-05T06:11:12.748Z,2.55
2023-04-05T06:12:12.776Z,2.07
2023-04-05T06:13:12.820Z,2.62
2023-04-05T06:14:12.864Z,2.18
2023-04-05T06:15:12.902Z,2.60
2023-04-05T06:16:13.002Z,2.40
2023-04-05T06:17:13.025Z,2.12
2023-04-05T06:18:13.132Z,2.36
2023-04-05T06:19:13.067Z,2.44
2023-04-05T06:20:13.067Z,2.20
2023-04-05T06:21:13.097Z,2.38
2023-04-05T06:22:13.134Z,2.27
2023-04-05T06:23:13.161Z,2.34
2023-04-05T06:24:13.179Z,2.36
2023-04-05T06:25:13.237Z,2.17
2023-04-05T06:26:13.216Z,2.63
2023-04-05T06:27:13.217Z,2.18
2023-04-05T06:28:13.261Z,2.63
2023-04-05T06:29:13.269Z,2.40
2023-04-05T06:30:13.270Z,2.39
2023-04-05T06:31:13.273Z,2.09
2023-04-05T06:32:13.291Z,2.05
2023-04-05T06:33:13.275Z,1.96
2023-04-05T06:34:13.321Z,2.18
2023-04-05T06:35:13.273Z,2.24
2023-04-05T06:36:13.317Z,2.28
2023-04-05T06:37:13.339Z,1.88
2023-04-05T06:38:13.299Z,1.84
2023-04-05T06:39:13.291Z,2.37
2023-04-05T06:40:13.289Z,2.20
2023-04-05T06:41:13.286Z,2.55
2023-04-05T06:42:13.319Z,2.18
2023-04-05T06:43:13.340Z,2.43
2023-04-05T06:44:13.458Z,2.26
2023-04-05T06:45:13.426Z,2.16
2023-04-05T06:46:13.458Z,2.18
2023-04-05T06:47:13.493Z,2.00
2023-04-05T06:48:13.745Z,2.27
2023-04-05T06:49:13.556Z,2.30
2023-04-05T06:50:13.614Z,2.32
2023-04-05T06:51:13.643Z,2.04
2023-04-05T06:52:13.724Z,2.34
2023-04-05T06:53:13.787Z,2.16
2023-04-05T06:54:13.830Z,2.38
2023-04-05T06:55:13.877Z,2.13
2023-04-05T06:56:13.947Z,2.13
2023-04-05T06:57:13.988Z,2.22
2023-04-05T06:58:14.050Z,2.25
2023-04-05T06:59:14.108Z,2.35
2023-04-05T07:00:14.169Z,2.18
2023-04-05T07:01:14.239Z,2.37
2023-04-05T07:02:14.232Z,2.25
2023-04-05T07:03:14.320Z,2.08
2023-04-05T07:04:14.522Z,2.28
2023-04-05T07:05:14.443Z,2.14
2023-04-05T07:06:14.430Z,2.18
2023-04-05T07:07:14.473Z,2.30
2023-04-05T07:08:14.522Z,2.20
2023-04-05T07:09:14.569Z,2.46
2023-04-05T07:10:14.613Z,2.52
2023-04-05T07:11:14.636Z,2.11
2023-04-05T07:12:14.697Z,2.25
2023-04-05T07:13:14.754Z,2.13
2023-04-05T07:14:14.794Z,2.17
2023-04-05T07:15:14.834Z,1.90
2023-04-05T07:16:14.939Z,1.79
2023-04-05T07:17:14.937Z,2.14
2023-04-05T07:18:14.958Z,1.85
2023-04-05T07:19:15.195Z,2.22
2023-04-05T07:20:15.193Z,2.72
2023-04-05T07:21:15.103Z,2.45
2023-04-05T07:22:15.140Z,2.13
2023-04-05T07:23:15.185Z,1.72
2023-04-05T07:24:15.234Z,2.20
2023-04-05T07:25:15.270Z,2.33
2023-04-05T07:26:15.330Z,2.28
2023-04-05T07:27:15.354Z,2.04
2023-04-05T07:28:15.430Z,2.11
2023-04-05T07:29:15.427Z,2.10
2023-04-05T07:30:15.479Z,1.95
2023-04-05T07:31:15.515Z,2.44
2023-04-05T07:32:15.627Z,2.19
2023-04-05T07:33:15.616Z,2.62
2023-04-05T07:34:15.633Z,2.14
2023-04-05T07:35:15.661Z,2.01
2023-04-05T07:36:15.695Z,2.16
2023-04-05T07:37:15.721Z,2.21
2023-04-05T07:38:15.758Z,2.28
2023-04-05T07:39:15.775Z,2.11
2023-04-05T07:40:15.829Z,2.10
2023-04-05T07:41:15.847Z,1.96
2023-04-05T07:42:15.883Z,2.03
2023-04-05T07:43:15.902Z,2.09
2023-04-05T07:44:15.915Z,2.28
2023-04-05T07:45:15.959Z,2.45
2023-04-05T07:46:15.992Z,2.37
2023-04-05T07:47:16.011Z,1.58
2023-04-05T07:48:16.009Z,1.87
2023-04-05T07:49:16.005Z,2.10
2023-04-05T07:50:16.039Z,2.06
2023-04-05T07:51:16.062Z,2.06
2023-04-05T07:52:16.105Z,2.00
2023-04-05T07:53:16.081Z,1.70
2023-04-05T07:54:16.090Z,1.94
2023-04-05T07:55:16.114Z,1.82
2023-04-05T07:56:16.128Z,1.84
2023-04-05T07:57:16.126Z,1.92
2023-04-05T07:58:16.161Z,1.72
2023-04-05T07:59:16.185Z,1.58
2023-04-05T08:00:16.156Z,1.61
2023-04-05T08:01:16.162Z,1.99
2023-04-05T08:02:16.193Z,1.62
2023-04-05T08:03:16.264Z,1.82
2023-04-05T08:04:16.204Z,1.80
2023-04-05T08:05:16.269Z,1.43
2023-04-05T08:06:16.204Z,1.90
2023-04-05T08:07:16.231Z,2.02
2023-04-05T08:08:16.205Z,1.67
2023-04-05T08:09:16.207Z,1.77
2023-04-05T08:10:16.226Z,1.89
2023-04-05T08:11:16.219Z,1.39
2023-04-05T08:12:16.253Z,1.59
2023-04-05T08:13:16.245Z,1.62
2023-04-05T08:14:16.233Z,1.90
2023-04-05T08:15:16.227Z,1.96
2023-04-05T08:16:16.277Z,1.64
2023-04-05T08:17:16.267Z,1.73
2023-04-05T08:18:16.253Z,1.57
2023-04-05T08:19:16.290Z,2.00
2023-04-05T08:20:16.359Z,1.80
2023-04-05T08:21:16.359Z,1.67
2023-04-05T08:22:16.419Z,1.75
2023-04-05T08:23:16.457Z,1.41
2023-04-05T08:24:16.484Z,1.61
2023-04-05T08:25:16.522Z,1.88
2023-04-05T08:26:16.582Z,1.73
2023-04-05T08:27:16.714Z,1.59
2023-04-05T08:28:16.701Z,1.96
2023-04-05T08:29:16.755Z,1.76
2023-04-05T08:30:16.818Z,1.31
2023-04-05T08:31:16.845Z,1.51
2023-04-05T08:32:16.904Z,1.53
2023-04-05T08:33:16.909Z,1.72
2023-04-05T08:34:16.871Z,1.50
2023-04-05T08:35:16.898Z,1.93
2023-04-05T08:36:16.878Z,1.54
2023-04-05T08:37:16.920Z,1.98
2023-04-05T08:38:16.931Z,1.63
2023-04-05T08:39:16.940Z,1.73
2023-04-05T08:40:16.965Z,1.49
2023-04-05T08:41:16.978Z,1.68
2023-04-05T08:42:17.007Z,1.34
2023-04-05T08:43:17.923Z,1.38
2023-04-05T08:44:17.032Z,1.57
2023-04-05T08:45:17.031Z,1.60
2023-04-05T08:46:17.082Z,1.47
2023-04-05T08:47:17.019Z,2.01
2023-04-05T08:48:17.093Z,1.85
2023-04-05T08:49:16.976Z,1.63
2023-04-05T08:50:16.996Z,1.58
2023-04-05T08:51:16.984Z,1.59
2023-04-05T08:52:16.990Z,1.69
2023-04-05T08:53:16.972Z,1.63
2023-04-05T08:54:16.964Z,1.37
2023-04-05T08:55:16.941Z,1.73
2023-04-05T08:56:16.954Z,1.39
2023-04-05T08:57:16.929Z,1.63
2023-04-05T08:58:16.930Z,1.61
2023-04-05T08:59:16.975Z,1.31
2023-04-05T09:00:16.906Z,1.27
2023-04-05T09:01:16.953Z,1.44
2023-04-05T09:02:16.944Z,1.23
2023-04-05T09:03:16.989Z,1.78
2023-04-05T09:04:16.896Z,1.49
2023-04-05T09:05:16.892Z,1.45
2023-04-05T09:06:16.890Z,1.32
2023-04-05T09:07:16.879Z,1.33
2023-04-05T09:08:16.872Z,1.38
2023-04-05T09:09:16.875Z,1.75
2023-04-05T09:10:16.865Z,1.75
2023-04-05T09:11:16.860Z,1.72
2023-04-05T09:12:16.833Z,1.27
2023-04-05T09:13:16.821Z,1.42
2023-04-05T09:14:16.833Z,1.61
2023-04-05T09:15:16.856Z,1.40
2023-04-05T09:16:16.851Z,1.63
2023-04-05T09:17:16.829Z,1.63
2023-04-05T09:18:26.271Z,1.67
2023-04-05T09:19:17.805Z,1.49
2023-04-05T09:20:16.798Z,1.54
2023-04-05T09:21:16.817Z,1.55
2023-04-05T09:22:16.784Z,1.61
2023-04-05T09:23:16.795Z,1.60
2023-04-05T09:24:16.764Z,1.62
2023-04-05T09:25:16.753Z,1.33
2023-04-05T09:26:16.746Z,1.65
2023-04-05T09:27:16.785Z,1.50
2023-04-05T09:28:16.839Z,1.44
2023-04-05T09:29:16.920Z,1.40
2023-04-05T09:30:16.935Z,1.48
2023-04-05T09:31:16.999Z,1.88
2023-04-05T09:32:17.041Z,1.89
2023-04-05T09:33:17.152Z,1.78
2023-04-05T09:34:17.201Z,1.51
2023-04-05T09:35:17.222Z,1.27
2023-04-05T09:36:17.286Z,1.66
2023-04-05T09:37:17.332Z,1.39
2023-04-05T09:38:17.399Z,1.05
2023-04-05T09:39:17.465Z,1.79
2023-04-05T09:40:17.513Z,1.71
2023-04-05T09:41:17.586Z,1.66
2023-04-05T09:42:17.631Z,1.66
2023-04-05T09:43:17.677Z,1.89
2023-04-05T09:44:17.725Z,1.56
2023-04-05T09:45:17.793Z,1.63
2023-04-05T09:46:17.914Z,1.38
2023-04-05T09:47:17.967Z,1.50
2023-04-05T09:48:17.993Z,1.61
2023-04-05T09:49:18.068Z,1.59
2023-04-05T09:50:18.043Z,1.53
2023-04-05T09:51:18.124Z,1.21
2023-04-05T09:52:18.169Z,1.73
2023-04-05T09:53:18.207Z,1.28
2023-04-05T09:54:18.270Z,1.35
2023-04-05T09:55:18.301Z,1.44
2023-04-05T09:56:18.366Z,1.86
2023-04-05T09:57:18.434Z,1.75
2023-04-05T09:58:18.496Z,1.22
2023-04-05T09:59:18.603Z,1.58
2023-04-05T10:00:18.597Z,1.46
2023-04-05T10:01:18.656Z,1.42
2023-04-05T10:02:18.737Z,1.38
2023-04-05T10:03:18.805Z,1.50
2023-04-05T10:04:18.782Z,1.45
2023-04-05T10:05:18.842Z,1.29
2023-04-05T10:06:18.863Z,1.26
2023-04-05T10:07:19.009Z,1.27
2023-04-05T10:08:18.988Z,1.55
2023-04-05T10:09:19.017Z,1.19
2023-04-05T10:10:19.079Z,1.28
2023-04-05T10:11:19.139Z,1.47
2023-04-05T10:12:19.130Z,1.43
2023-04-05T10:13:19.198Z,1.51
2023-04-05T10:14:19.210Z,1.31
2023-04-05T10:15:19.231Z,1.57
2023-04-05T10:16:19.310Z,1.29
2023-04-05T10:17:19.292Z,1.38
2023-04-05T10:18:19.299Z,1.38
2023-04-05T10:19:19.312Z,1.46
2023-04-05T10:20:19.335Z,1.41
2023-04-05T10:21:19.363Z,1.28
2023-04-05T10:22:19.390Z,1.40
2023-04-05T10:23:19.399Z,1.31
2023-04-05T10:24:19.432Z,1.37
2023-04-05T10:25:19.475Z,1.30
2023-04-05T10:26:19.476Z,1.53
2023-04-05T10:27:19.476Z,1.42
2023-04-05T10:28:19.525Z,1.51
2023-04-05T10:29:19.564Z,1.18
2023-04-05T10:30:19.554Z,1.40
2023-04-05T10:31:34.285Z,1.78
2023-04-05T10:32:20.587Z,1.36
2023-04-05T10:33:19.545Z,1.77
2023-04-05T10:34:19.549Z,1.61
2023-04-05T10:35:19.532Z,1.43
2023-04-05T10:36:19.590Z,1.50
2023-04-05T10:37:19.530Z,1.43
2023-04-05T10:38:19.522Z,1.18
2023-04-05T10:39:19.494Z,1.32
2023-04-05T10:40:19.516Z,1.46
2023-04-05T10:41:19.527Z,1.73
2023-04-05T10:42:19.467Z,1.32
2023-04-05T10:43:19.508Z,1.48
2023-04-05T10:44:26.290Z,1.82
2023-04-05T10:45:20.505Z,1.15
2023-04-05T10:46:19.481Z,1.52
2023-04-05T10:47:19.437Z,1.47
2023-04-05T10:48:19.445Z,1.59
2023-04-05T10:49:19.424Z,1.50
2023-04-05T10:50:19.462Z,1.43
2023-04-05T10:51:19.423Z,1.25
2023-04-05T10:52:19.393Z,1.20
2023-04-05T10:53:19.373Z,1.52
2023-04-05T10:54:19.368Z,1.24
2023-04-05T10:55:19.382Z,1.60
2023-04-05T10:56:19.384Z,1.79
2023-04-05T10:57:19.348Z,1.23
2023-04-05T10:58:19.375Z,1.42
2023-04-05T10:59:19.483Z,1.31
2023-04-05T11:00:19.362Z,1.29
2023-04-05T11:01:19.354Z,1.41
2023-04-05T11:02:19.365Z,1.18
2023-04-05T11:03:19.367Z,1.71
2023-04-05T11:04:19.315Z,1.57
2023-04-05T11:05:19.384Z,1.74
2023-04-05T11:06:19.283Z,1.23
2023-04-05T11:07:19.274Z,1.24
2023-04-05T11:08:19.260Z,1.37
2023-04-05T11:09:19.262Z,1.72
2023-04-05T11:10:19.250Z,1.51
2023-04-05T11:11:19.282Z,1.33
2023-04-05T11:12:19.262Z,1.27
2023-04-05T11:13:19.231Z,1.39
2023-04-05T11:14:19.243Z,1.59
2023-04-05T11:46:53.834Z,1.66
2023-04-05T11:47:53.647Z,1.69
2023-04-05T11:48:53.601Z,1.46
2023-04-05T11:49:53.643Z,1.74
2023-04-05T11:50:53.783Z,1.49
2023-04-05T11:51:53.710Z,1.77
2023-04-05T11:52:53.698Z,0.98
2023-04-05T11:53:53.758Z,1.51
2023-04-05T11:54:53.736Z,1.55
2023-04-05T11:55:54.270Z,1.55
2023-04-05T11:56:53.828Z,1.22
2023-04-05T11:57:53.845Z,1.45
2023-04-05T11:58:53.866Z,1.45
2023-04-05T11:59:53.901Z,1.41
2023-04-05T12:00:54.260Z,1.52
2023-04-05T12:01:53.957Z,1.12
2023-04-05T12:02:54.081Z,1.39
2023-04-05T12:03:54.132Z,1.45
2023-04-05T12:04:54.053Z,1.61
2023-04-05T12:05:54.273Z,1.50
2023-04-05T12:06:54.115Z,1.20
2023-04-05T12:07:54.122Z,1.60
2023-04-05T12:08:54.184Z,1.84
2023-04-05T12:09:54.200Z,1.59
2023-04-05T12:10:54.260Z,1.26
2023-04-05T12:11:54.261Z,1.11
2023-04-05T12:12:54.307Z,1.71
2023-04-05T12:13:54.338Z,1.46
2023-04-05T12:14:54.380Z,1.38
2023-04-05T12:15:54.803Z,1.28
2023-04-05T12:16:54.438Z,1.53
2023-04-05T12:17:54.776Z,1.38
2023-04-05T12:18:54.512Z,1.31
2023-04-05T12:19:54.545Z,1.17
2023-04-05T12:20:55.280Z,1.27
2023-04-05T12:21:54.593Z,1.23
2023-04-05T12:22:54.639Z,1.40
2023-04-05T12:23:54.704Z,1.45
2023-04-05T12:24:54.707Z,1.58
2023-04-05T12:25:54.790Z,1.43
2023-04-05T12:26:57.046Z,0.97
2023-04-05T12:27:54.762Z,1.13
2023-04-05T12:28:54.792Z,1.29
2023-04-05T12:29:54.844Z,0.99
2023-04-05T12:30:54.792Z,1.44
2023-04-05T12:31:54.780Z,1.46
2023-04-05T12:32:54.836Z,1.59
2023-04-05T12:33:54.753Z,1.20
2023-04-05T12:34:54.736Z,1.56
2023-04-05T12:35:54.802Z,1.58
2023-04-05T12:36:54.722Z,1.16
2023-04-05T12:37:54.712Z,1.45
2023-04-05T12:38:54.693Z,1.59
2023-04-05T12:39:54.690Z,1.25
2023-04-05T12:40:54.794Z,1.07
2023-04-05T12:41:54.687Z,1.26
2023-04-05T12:42:54.671Z,1.56
2023-04-05T12:43:54.686Z,1.50
2023-04-05T12:44:54.667Z,1.11
2023-04-05T12:45:54.794Z,1.53
2023-04-05T12:46:54.671Z,1.51
2023-04-05T12:47:54.674Z,1.63
2023-04-05T12:48:54.666Z,1.18
2023-04-05T12:49:54.655Z,1.57
2023-04-05T12:50:54.819Z,1.38
2023-04-05T12:51:54.626Z,1.15
2023-04-05T12:52:54.612Z,1.57
2023-04-05T12:53:54.621Z,1.53
2023-04-05T12:54:54.612Z,1.48
2023-04-05T12:55:54.789Z,1.58
2023-04-05T12:56:54.647Z,1.24
2023-04-05T12:57:54.578Z,1.75
2023-04-05T12:58:54.607Z,1.19
2023-04-05T12:59:54.586Z,1.42
2023-04-05T13:00:54.792Z,1.54
2023-04-05T13:01:54.667Z,1.19
2023-04-05T13:02:54.711Z,1.25
2023-04-05T13:04:01.594Z,1.50
2023-04-05T13:04:55.696Z,1.44
2023-04-05T13:05:54.806Z,1.48
2023-04-05T13:06:54.674Z,1.47
2023-04-05T13:07:54.664Z,1.36
2023-04-05T13:08:54.648Z,1.58
2023-04-05T13:09:54.662Z,1.50
2023-04-05T13:10:56.505Z,1.19
2023-04-05T13:11:54.630Z,1.06
2023-04-05T13:12:54.635Z,1.27
2023-04-05T13:13:54.635Z,1.56
2023-04-05T13:14:54.618Z,1.14
2023-04-05T13:15:54.837Z,0.92
2023-04-05T13:16:54.637Z,1.39
2023-04-05T13:17:54.619Z,1.35
2023-04-05T13:18:54.580Z,1.40
2023-04-05T13:19:54.593Z,1.34
2023-04-05T13:20:54.824Z,1.25
2023-04-05T13:21:54.581Z,1.29
2023-04-05T13:22:54.565Z,1.49
2023-04-05T13:23:54.552Z,1.34
2023-04-05T13:24:54.560Z,1.32
2023-04-05T13:25:54.812Z,1.03
2023-04-05T13:26:54.542Z,1.19
2023-04-05T13:27:54.521Z,1.23
2023-04-05T13:28:54.529Z,0.99
2023-04-05T13:29:54.535Z,1.31
2023-04-05T13:30:54.934Z,1.28
2023-04-05T13:31:54.596Z,1.18
2023-04-05T13:32:54.575Z,1.13
2023-04-05T13:33:54.513Z,1.10
2023-04-05T13:34:54.487Z,1.46
2023-04-05T13:35:54.907Z,1.16
2023-04-05T13:36:54.466Z,1.10
2023-04-05T13:37:54.473Z,1.19
2023-04-05T13:38:54.479Z,1.24
2023-04-05T13:39:54.455Z,1.47
2023-04-05T13:40:54.825Z,1.45
2023-04-05T13:41:54.447Z,1.13
2023-04-05T13:42:54.419Z,1.16
2023-04-05T13:43:54.431Z,1.15
2023-04-05T13:44:54.419Z,1.00
2023-04-05T13:45:54.829Z,1.13
2023-04-05T13:46:54.486Z,1.06
2023-04-05T13:47:54.542Z,1.11
2023-04-05T13:48:54.587Z,1.08
2023-04-05T13:49:54.642Z,0.94
2023-04-05T13:50:54.830Z,0.93